sensor_id;sensor_type;location;lat;lon;timestamp;temperature;humidity
32877;DHT22;19226;51.600;8.034;2024-01-06T00:00:09;7.50;99.90
32877;DHT22;19226;51.600;8.034;2024-01-06T00:02:57;7.50;99.90
32877;DHT22;19226;51.600;8.034;2024-01-06T00:05:42;7.60;99.90
32877;DHT22;19226;51.600;8.034;2024-01-06T00:08:26;7.60;99.90
32877;DHT22;19226;51.600;8.034;2024-01-06T00:11:11;7.60;99.90
32877;DHT22;19226;51.600;8.034;2024-01-06T00:13:55;7.60;99.90
32877;DHT22;19226;51.600;8.034;2024-01-06T00:16:40;7.70;99.90
32877;DHT22;19226;51.600;8.034;2024-01-06T00:19:27;7.60;99.90
32877;DHT22;19226;51.600;8.034;2024-01-06T00:22:12;7.60;99.90
32877;DHT22;19226;51.600;8.034;2024-01-06T00:24:56;7.60;99.90
32877;DHT22;19226;51.600;8.034;2024-01-06T00:27:41;7.60;99.90
32877;DHT22;19226;51.600;8.034;2024-01-06T00:30:26;7.60;99.90
32877;DHT22;19226;51.600;8.034;2024-01-06T00:33:11;7.60;99.90
32877;DHT22;19226;51.600;8.034;2024-01-06T00:35:56;7.60;99.90
32877;DHT22;19226;51.600;8.034;2024-01-06T00:38:40;7.60;99.90
32877;DHT22;19226;51.600;8.034;2024-01-06T00:41:25;7.60;99.90
32877;DHT22;19226;51.600;8.034;2024-01-06T00:44:09;7.60;99.90
32877;DHT22;19226;51.600;8.034;2024-01-06T00:46:54;7.60;99.90
32877;DHT22;19226;51.600;8.034;2024-01-06T00:49:38;7.60;99.90
32877;DHT22;19226;51.600;8.034;2024-01-06T00:52:23;7.60;99.90
32877;DHT22;19226;51.600;8.034;2024-01-06T00:55:08;7.60;99.90
32877;DHT22;19226;51.600;8.034;2024-01-06T00:57:53;7.60;99.90
32877;DHT22;19226;51.600;8.034;2024-01-06T01:00:38;7.60;99.90
32877;DHT22;19226;51.600;8.034;2024-01-06T01:03:22;7.60;99.90
32877;DHT22;19226;51.600;8.034;2024-01-06T01:06:07;7.60;99.90
32877;DHT22;19226;51.600;8.034;2024-01-06T01:08:52;7.50;99.90
32877;DHT22;19226;51.600;8.034;2024-01-06T01:11:37;7.50;99.90
32877;DHT22;19226;51.600;8.034;2024-01-06T01:14:22;7.50;99.90
32877;DHT22;19226;51.600;8.034;2024-01-06T01:17:07;7.50;99.90
32877;DHT22;19226;51.600;8.034;2024-01-06T01:19:51;7.50;99.90
32877;DHT22;19226;51.600;8.034;2024-01-06T01:22:36;7.50;99.90
32877;DHT22;19226;51.600;8.034;2024-01-06T01:25:20;7.40;99.90
32877;DHT22;19226;51.600;8.034;2024-01-06T01:28:05;7.40;99.90
32877;DHT22;19226;51.600;8.034;2024-01-06T01:30:49;7.40;99.90
32877;DHT22;19226;51.600;8.034;2024-01-06T01:33:34;7.40;99.90
32877;DHT22;19226;51.600;8.034;2024-01-06T01:36:19;7.40;99.90
32877;DHT22;19226;51.600;8.034;2024-01-06T01:39:03;7.40;99.90
32877;DHT22;19226;51.600;8.034;2024-01-06T01:41:48;7.40;99.90
32877;DHT22;19226;51.600;8.034;2024-01-06T01:44:32;7.40;99.90
32877;DHT22;19226;51.600;8.034;2024-01-06T01:47:17;7.40;99.90
32877;DHT22;19226;51.600;8.034;2024-01-06T01:50:03;7.40;99.90
32877;DHT22;19226;51.600;8.034;2024-01-06T01:52:48;7.40;99.90
32877;DHT22;19226;51.600;8.034;2024-01-06T01:55:33;7.40;99.90
32877;DHT22;19226;51.600;8.034;2024-01-06T01:58:17;7.50;99.90
32877;DHT22;19226;51.600;8.034;2024-01-06T02:01:02;7.50;99.90
32877;DHT22;19226;51.600;8.034;2024-01-06T02:03:46;7.40;99.90
32877;DHT22;19226;51.600;8.034;2024-01-06T02:06:31;7.40;99.90
32877;DHT22;19226;51.600;8.034;2024-01-06T02:09:16;7.40;99.90
32877;DHT22;19226;51.600;8.034;2024-01-06T02:12:00;7.40;99.90
32877;DHT22;19226;51.600;8.034;2024-01-06T02:14:45;7.30;99.90
32877;DHT22;19226;51.600;8.034;2024-01-06T02:17:29;7.40;99.90
32877;DHT22;19226;51.600;8.034;2024-01-06T02:20:14;7.40;99.90
32877;DHT22;19226;51.600;8.034;2024-01-06T02:23:01;7.40;99.90
32877;DHT22;19226;51.600;8.034;2024-01-06T02:25:45;7.40;99.90
32877;DHT22;19226;51.600;8.034;2024-01-06T02:28:30;7.30;99.90
32877;DHT22;19226;51.600;8.034;2024-01-06T02:31:14;7.40;99.90
32877;DHT22;19226;51.600;8.034;2024-01-06T02:33:59;7.40;99.90
32877;DHT22;19226;51.600;8.034;2024-01-06T02:36:44;7.40;99.90
32877;DHT22;19226;51.600;8.034;2024-01-06T02:39:28;7.40;99.90
32877;DHT22;19226;51.600;8.034;2024-01-06T02:42:13;7.30;99.90
32877;DHT22;19226;51.600;8.034;2024-01-06T02:44:57;7.30;99.90
32877;DHT22;19226;51.600;8.034;2024-01-06T02:47:42;7.30;99.90
32877;DHT22;19226;51.600;8.034;2024-01-06T02:50:26;7.30;99.90
32877;DHT22;19226;51.600;8.034;2024-01-06T02:53:11;7.40;99.90
32877;DHT22;19226;51.600;8.034;2024-01-06T02:55:56;7.30;99.90
32877;DHT22;19226;51.600;8.034;2024-01-06T02:58:41;7.30;99.90
32877;DHT22;19226;51.600;8.034;2024-01-06T03:01:25;7.40;99.90
32877;DHT22;19226;51.600;8.034;2024-01-06T03:04:10;7.30;99.90
32877;DHT22;19226;51.600;8.034;2024-01-06T03:06:55;7.40;99.90
32877;DHT22;19226;51.600;8.034;2024-01-06T03:09:39;7.40;99.90
32877;DHT22;19226;51.600;8.034;2024-01-06T03:12:24;7.40;99.90
32877;DHT22;19226;51.600;8.034;2024-01-06T03:15:09;7.40;99.90
32877;DHT22;19226;51.600;8.034;2024-01-06T03:17:54;7.40;99.90
32877;DHT22;19226;51.600;8.034;2024-01-06T03:20:39;7.30;99.90
32877;DHT22;19226;51.600;8.034;2024-01-06T03:23:23;7.30;99.90
32877;DHT22;19226;51.600;8.034;2024-01-06T03:26:08;7.40;99.90
32877;DHT22;19226;51.600;8.034;2024-01-06T03:28:54;7.40;99.90
32877;DHT22;19226;51.600;8.034;2024-01-06T03:31:42;7.40;99.90
32877;DHT22;19226;51.600;8.034;2024-01-06T03:34:27;7.40;99.90
32877;DHT22;19226;51.600;8.034;2024-01-06T03:37:12;7.40;99.90
32877;DHT22;19226;51.600;8.034;2024-01-06T03:39:56;7.40;99.90
32877;DHT22;19226;51.600;8.034;2024-01-06T03:42:41;7.40;99.90
32877;DHT22;19226;51.600;8.034;2024-01-06T03:45:25;7.40;99.90
32877;DHT22;19226;51.600;8.034;2024-01-06T03:48:10;7.40;99.90
32877;DHT22;19226;51.600;8.034;2024-01-06T03:50:54;7.40;99.90
32877;DHT22;19226;51.600;8.034;2024-01-06T03:53:39;7.40;99.90
32877;DHT22;19226;51.600;8.034;2024-01-06T03:56:24;7.40;99.90
32877;DHT22;19226;51.600;8.034;2024-01-06T03:59:09;7.40;99.90
32877;DHT22;19226;51.600;8.034;2024-01-06T04:01:53;7.30;99.90
32877;DHT22;19226;51.600;8.034;2024-01-06T04:04:38;7.30;99.90
32877;DHT22;19226;51.600;8.034;2024-01-06T04:07:23;7.30;99.90
32877;DHT22;19226;51.600;8.034;2024-01-06T04:10:07;7.20;99.90
32877;DHT22;19226;51.600;8.034;2024-01-06T04:12:52;7.30;99.90
32877;DHT22;19226;51.600;8.034;2024-01-06T04:15:37;7.20;99.90
32877;DHT22;19226;51.600;8.034;2024-01-06T04:18:21;7.20;99.90
32877;DHT22;19226;51.600;8.034;2024-01-06T04:21:06;7.20;99.90
32877;DHT22;19226;51.600;8.034;2024-01-06T04:23:51;7.20;99.90
32877;DHT22;19226;51.600;8.034;2024-01-06T04:26:35;7.20;99.90
32877;DHT22;19226;51.600;8.034;2024-01-06T04:29:20;7.20;99.90
32877;DHT22;19226;51.600;8.034;2024-01-06T04:32:05;7.20;99.90
32877;DHT22;19226;51.600;8.034;2024-01-06T04:34:50;7.20;99.90
32877;DHT22;19226;51.600;8.034;2024-01-06T04:37:34;7.20;99.90
32877;DHT22;19226;51.600;8.034;2024-01-06T04:40:19;7.20;99.90
32877;DHT22;19226;51.600;8.034;2024-01-06T04:43:04;7.20;99.90
32877;DHT22;19226;51.600;8.034;2024-01-06T04:45:48;7.20;99.90
32877;DHT22;19226;51.600;8.034;2024-01-06T04:48:34;7.20;99.90
32877;DHT22;19226;51.600;8.034;2024-01-06T04:51:19;7.20;99.90
32877;DHT22;19226;51.600;8.034;2024-01-06T04:54:04;7.20;99.90
32877;DHT22;19226;51.600;8.034;2024-01-06T04:56:48;7.20;99.90
32877;DHT22;19226;51.600;8.034;2024-01-06T04:59:33;7.20;99.90
32877;DHT22;19226;51.600;8.034;2024-01-06T05:02:18;7.20;99.90
32877;DHT22;19226;51.600;8.034;2024-01-06T05:05:02;7.20;99.90
32877;DHT22;19226;51.600;8.034;2024-01-06T05:07:47;7.20;99.90
32877;DHT22;19226;51.600;8.034;2024-01-06T05:10:31;7.20;99.90
32877;DHT22;19226;51.600;8.034;2024-01-06T05:13:16;7.20;99.90
32877;DHT22;19226;51.600;8.034;2024-01-06T05:16:01;7.20;99.90
32877;DHT22;19226;51.600;8.034;2024-01-06T05:18:46;7.20;99.90
32877;DHT22;19226;51.600;8.034;2024-01-06T05:21:30;7.20;99.90
32877;DHT22;19226;51.600;8.034;2024-01-06T05:24:15;7.20;99.90
32877;DHT22;19226;51.600;8.034;2024-01-06T05:26:59;7.20;99.90
32877;DHT22;19226;51.600;8.034;2024-01-06T05:29:44;7.10;99.90
32877;DHT22;19226;51.600;8.034;2024-01-06T05:32:29;7.10;99.90
32877;DHT22;19226;51.600;8.034;2024-01-06T05:35:13;7.10;99.90
32877;DHT22;19226;51.600;8.034;2024-01-06T05:38:00;7.10;99.90
32877;DHT22;19226;51.600;8.034;2024-01-06T05:40:45;7.10;99.90
32877;DHT22;19226;51.600;8.034;2024-01-06T05:43:30;7.10;99.90
32877;DHT22;19226;51.600;8.034;2024-01-06T05:46:22;7.10;99.90
32877;DHT22;19226;51.600;8.034;2024-01-06T05:49:06;7.10;99.90
32877;DHT22;19226;51.600;8.034;2024-01-06T05:51:51;7.10;99.90
32877;DHT22;19226;51.600;8.034;2024-01-06T05:54:36;7.10;99.90
32877;DHT22;19226;51.600;8.034;2024-01-06T05:57:20;7.00;99.90
32877;DHT22;19226;51.600;8.034;2024-01-06T06:00:09;7.00;99.90
32877;DHT22;19226;51.600;8.034;2024-01-06T06:02:57;7.00;99.90
32877;DHT22;19226;51.600;8.034;2024-01-06T06:05:41;7.00;99.90
32877;DHT22;19226;51.600;8.034;2024-01-06T06:08:25;7.00;99.90
32877;DHT22;19226;51.600;8.034;2024-01-06T06:11:10;7.00;99.90
32877;DHT22;19226;51.600;8.034;2024-01-06T06:13:55;7.00;99.90
32877;DHT22;19226;51.600;8.034;2024-01-06T06:16:39;7.00;99.90
32877;DHT22;19226;51.600;8.034;2024-01-06T06:19:24;7.00;99.90
32877;DHT22;19226;51.600;8.034;2024-01-06T06:22:09;7.00;99.90
32877;DHT22;19226;51.600;8.034;2024-01-06T06:24:53;6.90;99.90
32877;DHT22;19226;51.600;8.034;2024-01-06T06:27:38;6.80;99.90
32877;DHT22;19226;51.600;8.034;2024-01-06T06:30:23;6.80;99.90
32877;DHT22;19226;51.600;8.034;2024-01-06T06:33:08;6.80;99.90
32877;DHT22;19226;51.600;8.034;2024-01-06T06:35:53;6.80;99.90
32877;DHT22;19226;51.600;8.034;2024-01-06T06:38:37;6.80;99.90
32877;DHT22;19226;51.600;8.034;2024-01-06T06:41:21;6.80;99.90
32877;DHT22;19226;51.600;8.034;2024-01-06T06:44:06;6.70;99.90
32877;DHT22;19226;51.600;8.034;2024-01-06T06:46:50;6.70;99.90
32877;DHT22;19226;51.600;8.034;2024-01-06T06:49:35;6.60;99.90
32877;DHT22;19226;51.600;8.034;2024-01-06T06:52:19;6.60;99.90
32877;DHT22;19226;51.600;8.034;2024-01-06T06:55:04;6.60;99.90
32877;DHT22;19226;51.600;8.034;2024-01-06T06:57:49;6.60;99.90
32877;DHT22;19226;51.600;8.034;2024-01-06T07:00:34;6.60;99.90
32877;DHT22;19226;51.600;8.034;2024-01-06T07:03:19;6.60;99.90
32877;DHT22;19226;51.600;8.034;2024-01-06T07:06:04;6.60;99.90
32877;DHT22;19226;51.600;8.034;2024-01-06T07:08:48;6.60;99.90
32877;DHT22;19226;51.600;8.034;2024-01-06T07:11:33;6.50;99.90
32877;DHT22;19226;51.600;8.034;2024-01-06T07:14:17;6.50;99.90
32877;DHT22;19226;51.600;8.034;2024-01-06T07:17:02;6.40;99.90
32877;DHT22;19226;51.600;8.034;2024-01-06T07:19:46;6.40;99.90
32877;DHT22;19226;51.600;8.034;2024-01-06T07:22:33;6.40;99.90
32877;DHT22;19226;51.600;8.034;2024-01-06T07:25:19;6.40;99.90
32877;DHT22;19226;51.600;8.034;2024-01-06T07:28:03;6.30;99.90
32877;DHT22;19226;51.600;8.034;2024-01-06T07:30:48;6.30;99.90
32877;DHT22;19226;51.600;8.034;2024-01-06T07:33:32;6.30;99.90
32877;DHT22;19226;51.600;8.034;2024-01-06T07:36:17;6.30;99.90
32877;DHT22;19226;51.600;8.034;2024-01-06T07:39:01;6.30;99.90
32877;DHT22;19226;51.600;8.034;2024-01-06T07:41:47;6.20;99.90
32877;DHT22;19226;51.600;8.034;2024-01-06T07:44:33;6.30;99.90
32877;DHT22;19226;51.600;8.034;2024-01-06T07:47:17;6.20;99.90
32877;DHT22;19226;51.600;8.034;2024-01-06T07:50:02;6.20;99.90
32877;DHT22;19226;51.600;8.034;2024-01-06T07:52:49;6.20;99.90
32877;DHT22;19226;51.600;8.034;2024-01-06T07:55:33;6.20;99.90
32877;DHT22;19226;51.600;8.034;2024-01-06T07:58:18;6.30;99.90
32877;DHT22;19226;51.600;8.034;2024-01-06T08:01:02;6.20;99.90
32877;DHT22;19226;51.600;8.034;2024-01-06T08:03:47;6.20;99.90
32877;DHT22;19226;51.600;8.034;2024-01-06T08:06:32;6.20;99.90
32877;DHT22;19226;51.600;8.034;2024-01-06T08:09:16;6.20;99.90
32877;DHT22;19226;51.600;8.034;2024-01-06T08:12:01;6.10;99.90
32877;DHT22;19226;51.600;8.034;2024-01-06T08:14:47;6.10;99.90
32877;DHT22;19226;51.600;8.034;2024-01-06T08:17:32;6.10;99.90
32877;DHT22;19226;51.600;8.034;2024-01-06T08:20:16;6.10;99.90
32877;DHT22;19226;51.600;8.034;2024-01-06T08:23:01;6.20;99.90
32877;DHT22;19226;51.600;8.034;2024-01-06T08:25:46;6.20;99.90
32877;DHT22;19226;51.600;8.034;2024-01-06T08:28:30;6.10;99.90
32877;DHT22;19226;51.600;8.034;2024-01-06T08:31:14;6.20;99.90
32877;DHT22;19226;51.600;8.034;2024-01-06T08:33:59;6.20;99.90
32877;DHT22;19226;51.600;8.034;2024-01-06T08:36:44;6.10;99.90
32877;DHT22;19226;51.600;8.034;2024-01-06T08:39:29;6.10;99.90
32877;DHT22;19226;51.600;8.034;2024-01-06T08:42:13;6.10;99.90
32877;DHT22;19226;51.600;8.034;2024-01-06T08:44:57;6.10;99.90
32877;DHT22;19226;51.600;8.034;2024-01-06T08:47:42;6.10;99.90
32877;DHT22;19226;51.600;8.034;2024-01-06T08:50:26;6.10;99.90
32877;DHT22;19226;51.600;8.034;2024-01-06T08:53:11;6.00;99.90
32877;DHT22;19226;51.600;8.034;2024-01-06T08:55:55;6.00;99.90
32877;DHT22;19226;51.600;8.034;2024-01-06T08:58:40;6.00;99.90
32877;DHT22;19226;51.600;8.034;2024-01-06T09:01:24;6.00;99.90
32877;DHT22;19226;51.600;8.034;2024-01-06T09:04:09;6.00;99.90
32877;DHT22;19226;51.600;8.034;2024-01-06T09:06:55;6.00;99.90
32877;DHT22;19226;51.600;8.034;2024-01-06T09:09:40;5.90;99.90
32877;DHT22;19226;51.600;8.034;2024-01-06T09:12:24;5.90;99.90
32877;DHT22;19226;51.600;8.034;2024-01-06T09:15:09;5.90;99.90
32877;DHT22;19226;51.600;8.034;2024-01-06T09:17:53;5.90;99.90
32877;DHT22;19226;51.600;8.034;2024-01-06T09:20:38;5.90;99.90
32877;DHT22;19226;51.600;8.034;2024-01-06T09:23:23;5.80;99.90
32877;DHT22;19226;51.600;8.034;2024-01-06T09:26:08;5.70;99.90
32877;DHT22;19226;51.600;8.034;2024-01-06T09:28:52;5.70;99.90
32877;DHT22;19226;51.600;8.034;2024-01-06T09:31:38;5.70;99.90
32877;DHT22;19226;51.600;8.034;2024-01-06T09:34:22;5.80;99.90
32877;DHT22;19226;51.600;8.034;2024-01-06T09:37:07;5.70;99.90
32877;DHT22;19226;51.600;8.034;2024-01-06T09:39:51;5.70;99.90
32877;DHT22;19226;51.600;8.034;2024-01-06T09:42:36;5.70;99.90
32877;DHT22;19226;51.600;8.034;2024-01-06T09:45:20;5.70;99.90
32877;DHT22;19226;51.600;8.034;2024-01-06T09:48:14;5.70;99.90
32877;DHT22;19226;51.600;8.034;2024-01-06T09:51:02;5.70;99.90
32877;DHT22;19226;51.600;8.034;2024-01-06T09:53:52;5.70;99.90
32877;DHT22;19226;51.600;8.034;2024-01-06T09:56:39;5.70;99.90
32877;DHT22;19226;51.600;8.034;2024-01-06T09:59:23;5.60;99.90
32877;DHT22;19226;51.600;8.034;2024-01-06T10:02:08;5.70;99.90
32877;DHT22;19226;51.600;8.034;2024-01-06T10:04:53;5.70;99.90
32877;DHT22;19226;51.600;8.034;2024-01-06T10:07:38;5.70;99.90
32877;DHT22;19226;51.600;8.034;2024-01-06T10:10:22;5.70;99.90
32877;DHT22;19226;51.600;8.034;2024-01-06T10:13:07;5.70;99.90
32877;DHT22;19226;51.600;8.034;2024-01-06T10:15:52;5.70;99.90
32877;DHT22;19226;51.600;8.034;2024-01-06T10:18:36;5.70;99.90
32877;DHT22;19226;51.600;8.034;2024-01-06T10:21:21;5.70;99.90
32877;DHT22;19226;51.600;8.034;2024-01-06T10:24:08;5.70;99.90
32877;DHT22;19226;51.600;8.034;2024-01-06T10:26:52;5.70;99.90
32877;DHT22;19226;51.600;8.034;2024-01-06T10:29:37;5.60;99.90
32877;DHT22;19226;51.600;8.034;2024-01-06T10:32:21;5.70;99.90
32877;DHT22;19226;51.600;8.034;2024-01-06T10:35:10;5.70;99.90
32877;DHT22;19226;51.600;8.034;2024-01-06T10:37:55;5.60;99.90
32877;DHT22;19226;51.600;8.034;2024-01-06T10:40:40;5.60;99.90
32877;DHT22;19226;51.600;8.034;2024-01-06T10:43:27;5.60;99.90
32877;DHT22;19226;51.600;8.034;2024-01-06T10:46:19;5.60;99.90
32877;DHT22;19226;51.600;8.034;2024-01-06T10:49:05;5.60;99.90
32877;DHT22;19226;51.600;8.034;2024-01-06T10:51:53;5.60;99.90
32877;DHT22;19226;51.600;8.034;2024-01-06T10:54:38;5.60;99.90
32877;DHT22;19226;51.600;8.034;2024-01-06T10:57:24;5.60;99.90
32877;DHT22;19226;51.600;8.034;2024-01-06T11:00:09;5.60;99.90
32877;DHT22;19226;51.600;8.034;2024-01-06T11:02:55;5.60;99.90
32877;DHT22;19226;51.600;8.034;2024-01-06T11:05:41;5.60;99.90
32877;DHT22;19226;51.600;8.034;2024-01-06T11:08:28;5.60;99.90
32877;DHT22;19226;51.600;8.034;2024-01-06T11:11:13;5.60;99.90
32877;DHT22;19226;51.600;8.034;2024-01-06T11:14:18;5.50;99.90
32877;DHT22;19226;51.600;8.034;2024-01-06T11:17:04;5.50;99.90
32877;DHT22;19226;51.600;8.034;2024-01-06T11:19:48;5.50;99.90
32877;DHT22;19226;51.600;8.034;2024-01-06T11:22:39;5.50;99.90
32877;DHT22;19226;51.600;8.034;2024-01-06T11:25:24;5.50;99.90
32877;DHT22;19226;51.600;8.034;2024-01-06T11:28:10;5.50;99.90
32877;DHT22;19226;51.600;8.034;2024-01-06T11:31:07;5.50;99.90
32877;DHT22;19226;51.600;8.034;2024-01-06T11:33:54;5.50;99.90
32877;DHT22;19226;51.600;8.034;2024-01-06T11:36:38;5.50;99.90
32877;DHT22;19226;51.600;8.034;2024-01-06T11:39:41;5.50;99.90
32877;DHT22;19226;51.600;8.034;2024-01-06T11:42:32;5.50;99.90
32877;DHT22;19226;51.600;8.034;2024-01-06T11:45:17;5.50;99.90
32877;DHT22;19226;51.600;8.034;2024-01-06T11:48:06;5.40;99.90
32877;DHT22;19226;51.600;8.034;2024-01-06T11:50:51;5.40;99.90
32877;DHT22;19226;51.600;8.034;2024-01-06T11:53:37;5.40;99.90
32877;DHT22;19226;51.600;8.034;2024-01-06T11:56:22;5.40;99.90
32877;DHT22;19226;51.600;8.034;2024-01-06T11:59:09;5.40;99.90
32877;DHT22;19226;51.600;8.034;2024-01-06T12:01:53;5.30;99.90
32877;DHT22;19226;51.600;8.034;2024-01-06T12:04:38;5.30;99.90
32877;DHT22;19226;51.600;8.034;2024-01-06T12:07:25;5.30;99.90
32877;DHT22;19226;51.600;8.034;2024-01-06T12:10:09;5.40;99.90
32877;DHT22;19226;51.600;8.034;2024-01-06T12:13:03;5.40;99.90
32877;DHT22;19226;51.600;8.034;2024-01-06T12:15:49;5.40;99.90
32877;DHT22;19226;51.600;8.034;2024-01-06T12:18:34;5.40;99.90
32877;DHT22;19226;51.600;8.034;2024-01-06T12:21:18;5.40;99.90
32877;DHT22;19226;51.600;8.034;2024-01-06T12:24:17;5.40;99.90
32877;DHT22;19226;51.600;8.034;2024-01-06T12:27:07;5.40;99.90
32877;DHT22;19226;51.600;8.034;2024-01-06T12:29:54;5.40;99.90
32877;DHT22;19226;51.600;8.034;2024-01-06T12:32:38;5.30;99.90
32877;DHT22;19226;51.600;8.034;2024-01-06T12:35:23;5.30;99.90
32877;DHT22;19226;51.600;8.034;2024-01-06T12:38:09;5.30;99.90
32877;DHT22;19226;51.600;8.034;2024-01-06T12:40:55;5.30;99.90
32877;DHT22;19226;51.600;8.034;2024-01-06T12:43:40;5.30;99.90
32877;DHT22;19226;51.600;8.034;2024-01-06T12:46:25;5.20;99.90
32877;DHT22;19226;51.600;8.034;2024-01-06T12:49:10;5.20;99.90
32877;DHT22;19226;51.600;8.034;2024-01-06T12:51:54;5.20;99.90
32877;DHT22;19226;51.600;8.034;2024-01-06T12:54:39;5.20;99.90
32877;DHT22;19226;51.600;8.034;2024-01-06T12:57:24;5.20;99.90
32877;DHT22;19226;51.600;8.034;2024-01-06T13:00:09;5.20;99.90
32877;DHT22;19226;51.600;8.034;2024-01-06T13:02:56;5.20;99.90
32877;DHT22;19226;51.600;8.034;2024-01-06T13:05:40;5.20;99.90
32877;DHT22;19226;51.600;8.034;2024-01-06T13:08:25;5.20;99.90
32877;DHT22;19226;51.600;8.034;2024-01-06T13:11:10;5.20;99.90
32877;DHT22;19226;51.600;8.034;2024-01-06T13:13:55;5.20;99.90
32877;DHT22;19226;51.600;8.034;2024-01-06T13:16:39;5.10;99.90
32877;DHT22;19226;51.600;8.034;2024-01-06T13:19:25;5.10;99.90
32877;DHT22;19226;51.600;8.034;2024-01-06T13:22:09;5.10;99.90
32877;DHT22;19226;51.600;8.034;2024-01-06T13:24:54;5.10;99.90
32877;DHT22;19226;51.600;8.034;2024-01-06T13:27:38;5.10;99.90
32877;DHT22;19226;51.600;8.034;2024-01-06T13:30:23;5.00;99.90
32877;DHT22;19226;51.600;8.034;2024-01-06T13:33:08;5.10;99.90
32877;DHT22;19226;51.600;8.034;2024-01-06T13:35:55;5.10;99.90
32877;DHT22;19226;51.600;8.034;2024-01-06T13:38:40;5.10;99.90
32877;DHT22;19226;51.600;8.034;2024-01-06T13:41:24;5.10;99.90
32877;DHT22;19226;51.600;8.034;2024-01-06T13:44:09;5.10;99.90
32877;DHT22;19226;51.600;8.034;2024-01-06T13:46:53;5.10;99.90
32877;DHT22;19226;51.600;8.034;2024-01-06T13:49:39;5.10;99.90
32877;DHT22;19226;51.600;8.034;2024-01-06T13:52:23;5.10;99.90
32877;DHT22;19226;51.600;8.034;2024-01-06T13:55:08;5.00;99.90
32877;DHT22;19226;51.600;8.034;2024-01-06T13:57:54;5.00;99.90
32877;DHT22;19226;51.600;8.034;2024-01-06T14:00:39;5.00;99.90
32877;DHT22;19226;51.600;8.034;2024-01-06T14:03:23;5.00;99.90
32877;DHT22;19226;51.600;8.034;2024-01-06T14:06:08;5.00;99.90
32877;DHT22;19226;51.600;8.034;2024-01-06T14:08:53;5.00;99.90
32877;DHT22;19226;51.600;8.034;2024-01-06T14:11:37;5.00;99.90
32877;DHT22;19226;51.600;8.034;2024-01-06T14:14:22;5.00;99.90
32877;DHT22;19226;51.600;8.034;2024-01-06T14:17:06;5.00;99.90
32877;DHT22;19226;51.600;8.034;2024-01-06T14:19:51;5.00;99.90
32877;DHT22;19226;51.600;8.034;2024-01-06T14:22:36;4.90;99.90
32877;DHT22;19226;51.600;8.034;2024-01-06T14:25:21;4.90;99.90
32877;DHT22;19226;51.600;8.034;2024-01-06T14:28:06;4.90;99.90
32877;DHT22;19226;51.600;8.034;2024-01-06T14:30:50;4.90;99.90
32877;DHT22;19226;51.600;8.034;2024-01-06T14:33:35;4.90;99.90
32877;DHT22;19226;51.600;8.034;2024-01-06T14:36:20;4.90;99.90
32877;DHT22;19226;51.600;8.034;2024-01-06T14:39:05;4.90;99.90
32877;DHT22;19226;51.600;8.034;2024-01-06T14:41:51;4.80;99.90
32877;DHT22;19226;51.600;8.034;2024-01-06T14:44:36;4.80;99.90
32877;DHT22;19226;51.600;8.034;2024-01-06T14:47:20;4.80;99.90
32877;DHT22;19226;51.600;8.034;2024-01-06T14:50:05;4.80;99.90
32877;DHT22;19226;51.600;8.034;2024-01-06T14:52:50;4.70;99.90
32877;DHT22;19226;51.600;8.034;2024-01-06T14:55:34;4.80;99.90
32877;DHT22;19226;51.600;8.034;2024-01-06T14:58:19;4.80;99.90
32877;DHT22;19226;51.600;8.034;2024-01-06T15:01:05;4.80;99.90
32877;DHT22;19226;51.600;8.034;2024-01-06T15:03:49;4.80;99.90
32877;DHT22;19226;51.600;8.034;2024-01-06T15:06:34;4.80;99.90
32877;DHT22;19226;51.600;8.034;2024-01-06T15:09:18;4.80;99.90
32877;DHT22;19226;51.600;8.034;2024-01-06T15:12:05;4.80;99.90
32877;DHT22;19226;51.600;8.034;2024-01-06T15:14:50;4.70;99.90
32877;DHT22;19226;51.600;8.034;2024-01-06T15:17:34;4.70;99.90
32877;DHT22;19226;51.600;8.034;2024-01-06T15:20:20;4.70;99.90
32877;DHT22;19226;51.600;8.034;2024-01-06T15:23:06;4.60;99.90
32877;DHT22;19226;51.600;8.034;2024-01-06T15:25:50;4.70;99.90
32877;DHT22;19226;51.600;8.034;2024-01-06T15:28:35;4.60;99.90
32877;DHT22;19226;51.600;8.034;2024-01-06T15:31:19;4.70;99.90
32877;DHT22;19226;51.600;8.034;2024-01-06T15:34:09;4.70;99.90
32877;DHT22;19226;51.600;8.034;2024-01-06T15:36:54;4.70;99.90
32877;DHT22;19226;51.600;8.034;2024-01-06T15:39:38;4.70;99.90
32877;DHT22;19226;51.600;8.034;2024-01-06T15:42:23;4.60;99.90
32877;DHT22;19226;51.600;8.034;2024-01-06T15:45:07;4.60;99.90
32877;DHT22;19226;51.600;8.034;2024-01-06T15:47:52;4.60;99.90
32877;DHT22;19226;51.600;8.034;2024-01-06T15:50:37;4.60;99.90
32877;DHT22;19226;51.600;8.034;2024-01-06T15:53:21;4.60;99.90
32877;DHT22;19226;51.600;8.034;2024-01-06T15:56:06;4.60;99.90
32877;DHT22;19226;51.600;8.034;2024-01-06T15:58:51;4.60;99.90
32877;DHT22;19226;51.600;8.034;2024-01-06T16:01:41;4.60;99.90
32877;DHT22;19226;51.600;8.034;2024-01-06T16:04:25;4.60;99.90
32877;DHT22;19226;51.600;8.034;2024-01-06T16:07:10;4.60;99.90
32877;DHT22;19226;51.600;8.034;2024-01-06T16:09:55;4.60;99.90
32877;DHT22;19226;51.600;8.034;2024-01-06T16:12:39;4.60;99.90
32877;DHT22;19226;51.600;8.034;2024-01-06T16:15:25;4.60;99.90
32877;DHT22;19226;51.600;8.034;2024-01-06T16:18:10;4.60;99.90
32877;DHT22;19226;51.600;8.034;2024-01-06T16:20:54;4.50;99.90
32877;DHT22;19226;51.600;8.034;2024-01-06T16:23:41;4.50;99.90
32877;DHT22;19226;51.600;8.034;2024-01-06T16:26:26;4.50;99.90
32877;DHT22;19226;51.600;8.034;2024-01-06T16:29:10;4.50;99.90
32877;DHT22;19226;51.600;8.034;2024-01-06T16:31:55;4.50;99.90
32877;DHT22;19226;51.600;8.034;2024-01-06T16:34:39;4.60;99.90
32877;DHT22;19226;51.600;8.034;2024-01-06T16:37:25;4.60;99.90
32877;DHT22;19226;51.600;8.034;2024-01-06T16:40:10;4.60;99.90
32877;DHT22;19226;51.600;8.034;2024-01-06T16:42:55;4.50;99.90
32877;DHT22;19226;51.600;8.034;2024-01-06T16:45:39;4.50;99.90
32877;DHT22;19226;51.600;8.034;2024-01-06T16:48:24;4.50;99.90
32877;DHT22;19226;51.600;8.034;2024-01-06T16:51:09;4.50;99.90
32877;DHT22;19226;51.600;8.034;2024-01-06T16:53:53;4.50;99.90
32877;DHT22;19226;51.600;8.034;2024-01-06T16:56:38;4.50;99.90
32877;DHT22;19226;51.600;8.034;2024-01-06T16:59:22;4.50;99.90
32877;DHT22;19226;51.600;8.034;2024-01-06T17:02:07;4.50;99.90
32877;DHT22;19226;51.600;8.034;2024-01-06T17:04:52;4.50;99.90
32877;DHT22;19226;51.600;8.034;2024-01-06T17:07:36;4.50;99.90
32877;DHT22;19226;51.600;8.034;2024-01-06T17:10:21;4.50;99.90
32877;DHT22;19226;51.600;8.034;2024-01-06T17:13:05;4.40;99.90
32877;DHT22;19226;51.600;8.034;2024-01-06T17:15:50;4.50;99.90
32877;DHT22;19226;51.600;8.034;2024-01-06T17:18:34;4.50;99.90
32877;DHT22;19226;51.600;8.034;2024-01-06T17:21:19;4.50;99.90
32877;DHT22;19226;51.600;8.034;2024-01-06T17:24:04;4.60;99.90
32877;DHT22;19226;51.600;8.034;2024-01-06T17:26:49;4.60;99.90
32877;DHT22;19226;51.600;8.034;2024-01-06T17:29:33;4.50;99.90
32877;DHT22;19226;51.600;8.034;2024-01-06T17:32:19;4.50;99.90
32877;DHT22;19226;51.600;8.034;2024-01-06T17:35:04;4.60;99.90
32877;DHT22;19226;51.600;8.034;2024-01-06T17:37:51;4.60;99.90